Cone, Texas
Current Conditions -  °F | °C
As of 2:53 PM on Monday 22 Dec 2014 (Local Time) from KLBB Reporting Station
Overcast Overcast  
Wind Chill: 56°   Ceiling: 22000
Heat Index: 56°   Visibility: 10mi
Dew Point: 29°   Wind: 9mph
Humidity: 36%   Direction: 350°N
Pressure: 29.68"   Gusts: NA
Location:  33.5997°N, 101.355°W
Report Text: KLBB 222053Z 35008KT 10SM SCT060 BKN220 OVC300 13/M02 A2968 RMK AO2 SLP027 BINOVC W-N T01331017 58021
Loading
Personal Weather Stations






























Interactive Weather Map New forecast layout! Learn more

10-Day Weather Forecast

Advertisements
Track Severe Weather on mobile